Time;durP1;ratioP1;P1;durP2;ratioP2;P2;SDS_P1;SDS_P2;PMS_P1;PMS_P2;Temp;Humidity;BMP_temperature;BMP_pressure;BME280_temperature;BME280_humidity;BME280_pressure;Samples;Min_cycle;Max_cycle;Signal;HPM_P1;HPM_P2
2022/03/31 00:02:21;;;;;;;4.20;2.10;;;;;;;;;;5057963;28;20434;-60
2022/03/31 00:04:48;;;;;;;3.58;1.50;;;;;;;;;;5059615;28;20123;-60
2022/03/31 00:07:15;;;;;;;2.33;1.58;;;;;;;;;;5057960;28;20502;-60
2022/03/31 00:09:42;;;;;;;3.03;1.60;;;;;;;;;;5067532;28;20172;-60
2022/03/31 00:12:09;;;;;;;1.93;1.57;;;;;;;;;;5055962;28;20482;-60
2022/03/31 00:14:35;;;;;;;;;;;;;;;;;;5060296;28;20775;-60
2022/03/31 00:17:02;;;;;;;3.00;1.90;;;;;;;;;;5059610;28;20066;-60
2022/03/31 00:19:29;;;;;;;7.93;1.80;;;;;;;;;;5059241;28;20131;-60
2022/03/31 00:21:56;;;;;;;;;;;;;;;;;;5058199;28;20048;-60
2022/03/31 00:24:22;;;;;;;3.50;1.90;;;;;;;;;;5057845;28;20027;-60
2022/03/31 00:26:49;;;;;;;1.60;1.50;;;;;;;;;;5056495;28;20697;-60
2022/03/31 00:29:16;;;;;;;;;;;;;;;;;;5059237;28;22484;-59
2022/03/31 00:31:43;;;;;;;3.97;1.80;;;;;;;;;;5060735;28;20047;-60
2022/03/31 00:34:09;;;;;;;3.75;2.20;;;;;;;;;;5060000;28;20111;-60
2022/03/31 00:36:36;;;;;;;1.77;1.52;;;;;;;;;;5059484;28;20044;-60
2022/03/31 00:41:48;;;;;;;4.07;1.90;;;;;;;;;;5058127;28;20497;-60
2022/03/31 00:44:15;;;;;;;4.43;1.90;;;;;;;;;;5060535;28;20051;-60
2022/03/31 00:46:45;;;;;;;2.30;1.60;;;;;;;;;;5060068;28;20048;-59
2022/03/31 00:49:13;;;;;;;2.73;1.53;;;;;;;;;;5057858;28;20144;-59
2022/03/31 00:51:39;;;;;;;3.87;1.80;;;;;;;;;;5057896;28;20048;-60
2022/03/31 00:54:06;;;;;;;2.10;1.77;;;;;;;;;;5058335;28;20063;-60
2022/03/31 00:56:33;;;;;;;1.50;1.40;;;;;;;;;;5059083;28;20792;-59
2022/03/31 00:59:00;;;;;;;2.03;1.48;;;;;;;;;;5056794;28;20151;-59
2022/03/31 01:01:26;;;;;;;2.75;1.90;;;;;;;;;;5059464;28;20083;-60
2022/03/31 01:03:53;;;;;;;3.10;1.55;;;;;;;;;;5061262;28;20052;-59
2022/03/31 01:06:19;;;;;;;1.80;1.50;;;;;;;;;;5057458;28;20543;-59
2022/03/31 01:08:46;;;;;;;2.40;1.73;;;;;;;;;;5059751;28;20132;-59
2022/03/31 01:11:20;;;;;;;3.40;2.20;;;;;;;;;;5058047;28;20136;-59
2022/03/31 01:13:47;;;;;;;3.07;1.80;;;;;;;;;;5058798;28;20147;-59
2022/03/31 01:16:13;;;;;;;2.60;1.50;;;;;;;;;;5061011;28;20153;-59
2022/03/31 01:18:43;;;;;;;2.47;1.70;;;;;;;;;;5057535;28;20143;-60
2022/03/31 01:21:10;;;;;;;3.65;2.20;;;;;;;;;;5060263;28;20044;-59
2022/03/31 01:23:36;;;;;;;4.40;3.15;;;;;;;;;;5055651;28;20148;-59
2022/03/31 01:26:09;;;;;;;5.15;3.33;;;;;;;;;;5055622;28;20136;-59
2022/03/31 01:28:41;;;;;;;8.10;4.00;;;;;;;;;;5054834;28;20150;-59
2022/03/31 01:31:08;;;;;;;6.43;3.67;;;;;;;;;;5056890;28;20509;-57
2022/03/31 01:33:34;;;;;;;6.35;3.67;;;;;;;;;;5058362;28;20083;-59
2022/03/31 01:36:02;;;;;;;5.10;3.05;;;;;;;;;;5059142;28;20144;-59
2022/03/31 01:38:28;;;;;;;4.28;2.75;;;;;;;;;;5063269;28;20139;-60
2022/03/31 01:40:54;;;;;;;3.60;2.17;;;;;;;;;;5061298;28;20087;-59
2022/03/31 01:43:21;;;;;;;2.33;1.50;;;;;;;;;;5058462;28;20076;-59
2022/03/31 01:45:52;;;;;;;2.17;1.98;;;;;;;;;;5060687;28;20482;-59
2022/03/31 01:48:19;;;;;;;3.00;2.00;;;;;;;;;;5058884;28;20052;-59
2022/03/31 01:50:46;;;;;;;2.95;2.15;;;;;;;;;;5058593;28;20577;-59
2022/03/31 01:53:18;;;;;;;3.13;2.13;;;;;;;;;;5053813;28;20519;-59
2022/03/31 01:55:45;;;;;;;2.60;2.00;;;;;;;;;;5056297;28;20084;-60
2022/03/31 01:58:11;;;;;;;6.88;2.38;;;;;;;;;;5058191;28;20127;-59
2022/03/31 02:00:38;;;;;;;2.30;1.80;;;;;;;;;;5058550;28;20067;-59
2022/03/31 02:03:05;;;;;;;5.38;2.35;;;;;;;;;;5056872;28;20570;-58
2022/03/31 02:05:32;;;;;;;6.17;2.03;;;;;;;;;;5040594;28;20041;-59
2022/03/31 02:07:59;;;;;;;2.33;1.80;;;;;;;;;;5059480;28;20089;-59
2022/03/31 02:10:25;;;;;;;3.00;1.95;;;;;;;;;;5058940;28;20127;-59
2022/03/31 02:12:53;;;;;;;5.05;1.77;;;;;;;;;;5057505;28;20128;-59
2022/03/31 02:15:21;;;;;;;5.33;2.57;;;;;;;;;;5059835;28;20143;-59
2022/03/31 02:17:48;;;;;;;4.60;2.40;;;;;;;;;;5060729;28;20123;-59
2022/03/31 02:20:15;;;;;;;3.63;2.37;;;;;;;;;;5058701;28;20092;-59
2022/03/31 02:22:41;;;;;;;3.33;1.75;;;;;;;;;;5059547;28;20079;-59
2022/03/31 02:25:08;;;;;;;2.03;1.65;;;;;;;;;;5064333;28;20131;-58
2022/03/31 02:27:41;;;;;;;3.67;2.40;;;;;;;;;;5059331;28;20123;-59
2022/03/31 02:30:08;;;;;;;3.40;1.48;;;;;;;;;;5060531;28;20662;-59
2022/03/31 02:32:35;;;;;;;4.55;2.10;;;;;;;;;;5056530;28;20140;-58
2022/03/31 02:35:05;;;;;;;2.50;1.83;;;;;;;;;;5056196;28;20592;-57
2022/03/31 02:37:31;;;;;;;4.93;2.13;;;;;;;;;;5055281;28;20052;-58
2022/03/31 02:39:58;;;;;;;2.95;1.80;;;;;;;;;;5057745;28;20143;-59
2022/03/31 02:42:25;;;;;;;2.58;1.70;;;;;;;;;;5056885;28;20132;-57
2022/03/31 02:44:51;;;;;;;3.28;1.67;;;;;;;;;;5057157;28;20056;-59
2022/03/31 02:47:18;;;;;;;2.13;1.90;;;;;;;;;;5052284;28;20492;-59
2022/03/31 02:49:44;;;;;;;5.90;2.22;;;;;;;;;;5056235;28;20059;-57
2022/03/31 02:52:11;;;;;;;4.15;1.70;;;;;;;;;;5056589;28;20084;-58
2022/03/31 02:57:24;;;;;;;2.50;1.90;;;;;;;;;;5055925;28;20216;-59
2022/03/31 02:59:51;;;;;;;;;;;;;;;;;;5056882;28;20084;-58
2022/03/31 03:02:17;;;;;;;3.00;1.77;;;;;;;;;;5056483;28;20295;-59
2022/03/31 03:04:44;;;;;;;3.42;1.80;;;;;;;;;;5056321;28;20055;-59
2022/03/31 03:07:15;;;;;;;2.87;1.90;;;;;;;;;;5055976;28;20155;-60
2022/03/31 03:09:41;;;;;;;4.38;2.25;;;;;;;;;;5054881;28;20133;-58
2022/03/31 03:12:09;;;;;;;7.53;2.10;;;;;;;;;;5054919;28;20135;-59
2022/03/31 03:14:35;;;;;;;;;;;;;;;;;;5056958;28;20139;-59
2022/03/31 03:17:01;;;;;;;4.37;2.00;;;;;;;;;;5054295;28;19959;-59
2022/03/31 03:19:28;;;;;;;3.30;2.08;;;;;;;;;;5055053;28;20091;-59
2022/03/31 03:21:55;;;;;;;2.42;1.80;;;;;;;;;;5055890;28;20135;-58
2022/03/31 03:24:22;;;;;;;3.33;1.92;;;;;;;;;;5054893;28;20116;-58
2022/03/31 03:26:49;;;;;;;5.63;2.05;;;;;;;;;;5055057;28;21057;-55
2022/03/31 03:29:16;;;;;;;6.38;2.35;;;;;;;;;;5036179;28;21038;-62
2022/03/31 03:31:42;;;;;;;3.28;2.30;;;;;;;;;;5057712;28;20045;-58
2022/03/31 03:34:09;;;;;;;4.25;2.10;;;;;;;;;;5050247;28;20131;-58
2022/03/31 03:36:42;;;;;;;3.77;2.30;;;;;;;;;;5056566;28;20482;-57
2022/03/31 03:39:11;;;;;;;2.30;1.83;;;;;;;;;;5056068;28;20053;-58
2022/03/31 03:41:38;;;;;;;4.90;2.23;;;;;;;;;;5060339;28;20311;-58
2022/03/31 03:44:05;;;;;;;3.40;2.20;;;;;;;;;;5057123;28;20135;-58
2022/03/31 03:46:32;;;;;;;1.75;1.50;;;;;;;;;;5056100;28;20144;-58
2022/03/31 03:48:58;;;;;;;4.70;1.83;;;;;;;;;;5063185;28;20075;-58
2022/03/31 03:51:26;;;;;;;5.03;2.03;;;;;;;;;;5060976;28;20064;-58
2022/03/31 03:53:53;;;;;;;2.42;1.90;;;;;;;;;;5055621;28;20103;-59
2022/03/31 03:56:20;;;;;;;1.88;1.60;;;;;;;;;;5061711;28;20592;-58
2022/03/31 03:58:53;;;;;;;4.17;2.13;;;;;;;;;;5059059;28;20459;-58
2022/03/31 04:01:20;;;;;;;3.58;2.20;;;;;;;;;;5060797;28;20563;-57
2022/03/31 04:03:46;;;;;;;4.85;2.00;;;;;;;;;;5062992;28;20052;-58
2022/03/31 04:06:13;;;;;;;2.88;2.03;;;;;;;;;;5059216;28;20139;-59
2022/03/31 04:08:39;;;;;;;6.40;2.60;;;;;;;;;;5059065;28;20076;-57
2022/03/31 04:11:06;;;;;;;5.30;2.10;;;;;;;;;;5061133;28;20132;-58
2022/03/31 04:13:32;;;;;;;4.25;2.50;;;;;;;;;;5058893;28;20076;-58
2022/03/31 04:15:59;;;;;;;7.78;2.80;;;;;;;;;;5062290;28;20531;-56
2022/03/31 04:18:25;;;;;;;3.78;2.30;;;;;;;;;;5064656;28;20571;-57
2022/03/31 04:21:01;;;;;;;5.07;2.10;;;;;;;;;;5062921;28;20139;-59
2022/03/31 04:23:28;;;;;;;4.20;2.50;;;;;;;;;;5060896;28;20139;-59
2022/03/31 04:25:54;;;;;;;5.32;2.70;;;;;;;;;;5060936;28;20094;-58
2022/03/31 04:28:27;;;;;;;4.17;2.57;;;;;;;;;;5063827;28;20575;-59
2022/03/31 04:30:54;;;;;;;6.30;2.70;;;;;;;;;;5057363;28;20121;-59
2022/03/31 04:33:21;;;;;;;3.42;2.03;;;;;;;;;;5062461;28;20501;-59
2022/03/31 04:35:49;;;;;;;8.30;2.87;;;;;;;;;;5058212;28;20448;-59
2022/03/31 04:38:16;;;;;;;2.88;1.98;;;;;;;;;;5062082;28;20072;-59
2022/03/31 04:40:42;;;;;;;6.38;2.40;;;;;;;;;;5058917;28;20565;-58
2022/03/31 04:43:09;;;;;;;4.40;2.40;;;;;;;;;;5060872;28;20076;-59
2022/03/31 04:45:35;;;;;;;2.95;2.10;;;;;;;;;;5060672;28;20571;-60
2022/03/31 04:48:02;;;;;;;3.65;1.98;;;;;;;;;;5062196;28;20099;-60
2022/03/31 04:50:28;;;;;;;2.72;1.90;;;;;;;;;;5045454;28;20083;-59
2022/03/31 04:52:55;;;;;;;3.30;2.00;;;;;;;;;;5060043;28;20084;-59
2022/03/31 04:55:29;;;;;;;5.30;2.00;;;;;;;;;;5064856;28;20068;-58
2022/03/31 04:57:56;;;;;;;2.40;1.83;;;;;;;;;;5061731;28;20135;-60
2022/03/31 05:00:22;;;;;;;3.63;2.22;;;;;;;;;;5060114;28;20132;-59
2022/03/31 05:02:51;;;;;;;5.10;2.07;;;;;;;;;;5058250;28;20128;-59
2022/03/31 05:05:18;;;;;;;2.75;1.92;;;;;;;;;;5058460;28;20082;-59
2022/03/31 05:07:44;;;;;;;4.80;2.60;;;;;;;;;;5059616;28;20148;-59
2022/03/31 05:10:21;;;;;;;4.13;2.97;;;;;;;;;;5057430;28;20045;-59
2022/03/31 05:12:47;;;;;;;;;;;;;;;;;;5061670;28;20084;-60
2022/03/31 05:15:13;;;;;;;3.80;2.27;;;;;;;;;;5057965;28;19960;-59
2022/03/31 05:17:41;;;;;;;;;;;;;;;;;;5059123;28;20077;-58
2022/03/31 05:20:08;;;;;;;3.67;2.03;;;;;;;;;;5058614;28;20003;-57
2022/03/31 05:22:36;;;;;;;6.90;2.10;;;;;;;;;;5062690;28;20224;-58
2022/03/31 05:25:10;;;;;;;3.80;2.67;;;;;;;;;;5060278;28;20076;-60
2022/03/31 05:27:40;;;;;;;6.88;2.47;;;;;;;;;;5061236;28;20045;-61
2022/03/31 05:30:07;;;;;;;7.53;2.40;;;;;;;;;;5060980;28;20131;-60
2022/03/31 05:32:40;;;;;;;11.80;2.63;;;;;;;;;;5057949;28;20140;-60
2022/03/31 05:35:08;;;;;;;3.03;2.08;;;;;;;;;;5059840;28;20080;-59
2022/03/31 05:37:34;;;;;;;;;;;;;;;;;;5060427;28;20410;-59
2022/03/31 05:40:04;;;;;;;4.63;2.13;;;;;;;;;;5056297;28;19921;-59
2022/03/31 05:42:33;;;;;;;5.70;2.10;;;;;;;;;;5056775;28;20049;-59
2022/03/31 05:45:00;;;;;;;3.03;2.00;;;;;;;;;;5055733;28;20146;-60
2022/03/31 05:47:27;;;;;;;9.53;2.00;;;;;;;;;;5054766;28;20139;-60
2022/03/31 05:49:54;;;;;;;3.10;2.00;;;;;;;;;;5053116;28;20144;-60
2022/03/31 05:52:20;;;;;;;2.35;1.95;;;;;;;;;;5054438;28;20053;-60
2022/03/31 05:54:50;;;;;;;6.90;2.27;;;;;;;;;;5057230;28;20142;-60
2022/03/31 05:57:17;;;;;;;4.47;2.10;;;;;;;;;;5056745;28;20224;-60
2022/03/31 05:59:43;;;;;;;1.90;1.60;;;;;;;;;;5056861;28;20056;-60
2022/03/31 06:02:11;;;;;;;5.43;2.10;;;;;;;;;;5053847;28;20714;-60
2022/03/31 06:04:58;;;;;;;6.40;2.20;;;;;;;;;;5056734;28;20057;-60
2022/03/31 06:07:25;;;;;;;4.25;2.08;;;;;;;;;;5058163;28;20148;-60
2022/03/31 06:09:51;;;;;;;2.90;1.88;;;;;;;;;;5055209;28;20135;-60
2022/03/31 06:12:18;;;;;;;2.33;1.70;;;;;;;;;;5055325;28;20044;-60
2022/03/31 06:14:44;;;;;;;3.60;2.00;;;;;;;;;;5056152;28;20127;-60
2022/03/31 06:17:11;;;;;;;5.72;2.10;;;;;;;;;;5055393;28;20151;-61
2022/03/31 06:19:38;;;;;;;7.07;2.25;;;;;;;;;;5057992;28;20139;-60
2022/03/31 06:22:05;;;;;;;6.63;2.13;;;;;;;;;;5058445;28;20440;-61
2022/03/31 06:24:32;;;;;;;5.15;2.38;;;;;;;;;;5055115;28;20056;-61
2022/03/31 06:27:00;;;;;;;5.27;2.37;;;;;;;;;;5056502;28;20143;-61
2022/03/31 06:29:27;;;;;;;2.73;1.97;;;;;;;;;;5056213;28;20126;-61
2022/03/31 06:31:54;;;;;;;2.45;1.33;;;;;;;;;;5056219;28;20040;-61
2022/03/31 06:34:21;;;;;;;;;;;;;;;;;;5056364;28;20381;-61
2022/03/31 06:36:49;;;;;;;4.78;2.00;;;;;;;;;;5055905;28;20415;-61
2022/03/31 06:39:16;;;;;;;4.30;1.93;;;;;;;;;;5054538;28;20144;-61
2022/03/31 06:41:43;;;;;;;7.72;1.55;;;;;;;;;;5059105;28;20809;-60
2022/03/31 06:44:13;;;;;;;2.08;1.60;;;;;;;;;;5056711;28;20062;-61
2022/03/31 06:46:40;;;;;;;2.97;2.10;;;;;;;;;;5056407;28;20050;-61
2022/03/31 06:49:06;;;;;;;2.85;1.60;;;;;;;;;;5055323;28;20056;-62
2022/03/31 06:51:33;;;;;;;3.83;1.55;;;;;;;;;;5054819;28;20055;-62
2022/03/31 06:54:00;;;;;;;5.28;1.70;;;;;;;;;;5055612;28;20132;-62
2022/03/31 06:56:28;;;;;;;5.00;2.20;;;;;;;;;;5057028;28;20079;-62
2022/03/31 06:59:04;;;;;;;4.20;2.58;;;;;;;;;;5061052;28;20118;-62
2022/03/31 07:01:31;;;;;;;3.50;2.20;;;;;;;;;;5055622;28;20171;-62
2022/03/31 07:03:58;;;;;;;4.30;2.00;;;;;;;;;;5060776;28;20051;-62
2022/03/31 07:06:26;;;;;;;10.25;2.50;;;;;;;;;;5065722;28;20143;-62
2022/03/31 07:08:53;;;;;;;4.80;2.28;;;;;;;;;;5056725;28;20099;-62
2022/03/31 07:11:20;;;;;;;6.10;1.85;;;;;;;;;;5056705;28;20135;-63
2022/03/31 07:13:53;;;;;;;4.35;2.17;;;;;;;;;;5058579;28;20079;-63
2022/03/31 07:16:20;;;;;;;2.95;2.03;;;;;;;;;;5060166;28;20053;-63
2022/03/31 07:18:47;;;;;;;5.47;1.80;;;;;;;;;;5060141;28;20083;-63
2022/03/31 07:21:16;;;;;;;3.08;1.90;;;;;;;;;;5046254;28;20097;-63
2022/03/31 07:23:47;;;;;;;4.40;2.03;;;;;;;;;;5059637;28;20139;-63
2022/03/31 07:26:14;;;;;;;4.25;1.90;;;;;;;;;;5062926;28;20339;-63
2022/03/31 07:28:41;;;;;;;5.43;1.90;;;;;;;;;;5061011;28;20131;-63
2022/03/31 07:31:08;;;;;;;8.03;1.80;;;;;;;;;;5059751;28;20132;-62
2022/03/31 07:33:34;;;;;;;6.28;1.80;;;;;;;;;;5061728;28;20052;-62
2022/03/31 07:36:07;;;;;;;5.13;2.20;;;;;;;;;;5062998;28;20131;-62
2022/03/31 07:38:34;;;;;;;13.65;2.47;;;;;;;;;;5061471;28;20087;-62
2022/03/31 07:41:00;;;;;;;6.18;2.30;;;;;;;;;;5062882;28;20163;-62
2022/03/31 07:43:27;;;;;;;4.40;2.73;;;;;;;;;;5060809;28;20143;-62
2022/03/31 07:45:54;;;;;;;6.13;2.95;;;;;;;;;;5058901;28;20603;-62
2022/03/31 07:48:21;;;;;;;5.53;2.10;;;;;;;;;;5063638;28;20135;-62
2022/03/31 07:50:47;;;;;;;5.30;1.75;;;;;;;;;;5052179;28;20140;-62
2022/03/31 07:53:14;;;;;;;6.78;2.60;;;;;;;;;;5059640;28;20131;-63
2022/03/31 07:55:40;;;;;;;10.33;2.53;;;;;;;;;;5058347;28;20662;-63
2022/03/31 07:58:07;;;;;;;10.23;2.63;;;;;;;;;;5056973;28;20144;-63
2022/03/31 08:00:33;;;;;;;5.47;2.33;;;;;;;;;;5060096;28;20108;-63
2022/03/31 08:03:01;;;;;;;5.20;2.50;;;;;;;;;;5056672;28;20427;-64
2022/03/31 08:05:28;;;;;;;;;;;;;;;;;;5059246;28;20435;-64
2022/03/31 08:07:54;;;;;;;4.45;2.30;;;;;;;;;;5059187;28;19989;-64
2022/03/31 08:10:21;;;;;;;6.35;2.30;;;;;;;;;;5058628;28;20136;-64
2022/03/31 08:12:48;;;;;;;4.43;2.28;;;;;;;;;;5058049;28;20095;-64
2022/03/31 08:15:15;;;;;;;4.38;2.25;;;;;;;;;;5057447;28;20144;-64
2022/03/31 08:17:42;;;;;;;3.38;1.90;;;;;;;;;;5058068;28;20082;-65
2022/03/31 08:20:10;;;;;;;4.13;2.03;;;;;;;;;;5057925;28;20094;-64
2022/03/31 08:22:38;;;;;;;6.22;2.67;;;;;;;;;;5061119;28;20123;-65
2022/03/31 08:25:05;;;;;;;7.57;2.20;;;;;;;;;;5056541;28;20155;-65
2022/03/31 08:27:32;;;;;;;;;;;;;;;;;;5060883;28;20151;-65
2022/03/31 08:29:59;;;;;;;2.38;1.60;;;;;;;;;;5058978;28;19960;-65
2022/03/31 08:32:25;;;;;;;8.00;1.95;;;;;;;;;;5057369;28;20052;-65
2022/03/31 08:34:52;;;;;;;6.57;1.98;;;;;;;;;;5057669;28;20048;-65
2022/03/31 08:37:19;;;;;;;5.15;1.80;;;;;;;;;;5056456;28;20135;-65
2022/03/31 08:39:45;;;;;;;6.60;2.13;;;;;;;;;;5057727;28;20082;-65
2022/03/31 08:42:12;;;;;;;4.45;1.85;;;;;;;;;;5043527;28;20511;-66
2022/03/31 08:44:39;;;;;;;4.65;1.75;;;;;;;;;;5061034;28;20476;-65
2022/03/31 08:47:08;;;;;;;2.08;1.17;;;;;;;;;;5057655;28;20475;-65
2022/03/31 08:49:35;;;;;;;5.35;1.75;;;;;;;;;;5058291;28;20045;-66
2022/03/31 08:52:03;;;;;;;3.83;1.48;;;;;;;;;;5056821;28;20079;-66
2022/03/31 08:54:30;;;;;;;4.05;2.20;;;;;;;;;;5061389;28;20159;-66
2022/03/31 08:57:05;;;;;;;4.00;1.70;;;;;;;;;;5058473;28;20506;-66
2022/03/31 08:59:51;;;;;;;4.50;1.75;;;;;;;;;;5056957;28;20044;-66
2022/03/31 09:02:25;;;;;;;2.63;1.60;;;;;;;;;;5055364;28;20187;-66
2022/03/31 09:05:05;;;;;;;2.67;1.60;;;;;;;;;;5056393;28;20059;-66
2022/03/31 09:07:31;;;;;;;6.22;2.20;;;;;;;;;;5056697;28;20049;-67
2022/03/31 09:09:58;;;;;;;3.92;1.70;;;;;;;;;;5055912;28;20084;-66
2022/03/31 09:12:26;;;;;;;4.00;1.60;;;;;;;;;;5060215;28;20083;-67
2022/03/31 09:15:20;;;;;;;5.80;1.73;;;;;;;;;;5059156;28;20059;-67
2022/03/31 09:17:52;;;;;;;4.38;1.58;;;;;;;;;;5060942;28;20534;-66
2022/03/31 09:20:20;;;;;;;3.40;1.70;;;;;;;;;;5060589;28;20144;-67
2022/03/31 09:22:49;;;;;;;4.00;1.60;;;;;;;;;;5061441;28;20389;-66
2022/03/31 09:25:25;;;;;;;3.67;1.70;;;;;;;;;;5060331;28;20141;-66
2022/03/31 09:27:52;;;;;;;4.95;1.90;;;;;;;;;;5058901;28;20083;-67
2022/03/31 09:30:19;;;;;;;5.28;1.63;;;;;;;;;;5032211;28;20136;-67
2022/03/31 09:32:49;;;;;;;8.05;1.52;;;;;;;;;;5058004;28;20136;-67
2022/03/31 09:35:20;;;;;;;3.97;1.27;;;;;;;;;;5056629;28;20163;-67
2022/03/31 09:37:49;;;;;;;3.60;1.45;;;;;;;;;;5060476;28;20132;-67
2022/03/31 09:40:17;;;;;;;2.40;1.20;;;;;;;;;;5061918;28;20088;-67
2022/03/31 09:42:54;;;;;;;6.65;1.50;;;;;;;;;;5060945;28;20040;-67
2022/03/31 09:45:20;;;;;;;3.75;1.40;;;;;;;;;;5059293;28;20631;-67
2022/03/31 09:47:51;;;;;;;6.05;1.70;;;;;;;;;;5055202;28;20124;-67
2022/03/31 09:50:19;;;;;;;5.30;1.60;;;;;;;;;;5059600;28;20782;-67
2022/03/31 09:52:52;;;;;;;4.47;1.60;;;;;;;;;;5060289;28;20133;-67
2022/03/31 09:55:19;;;;;;;4.00;1.60;;;;;;;;;;5057449;28;20084;-68
2022/03/31 09:57:46;;;;;;;4.03;1.83;;;;;;;;;;5059070;28;20104;-68
2022/03/31 10:00:21;;;;;;;2.90;1.20;;;;;;;;;;5058345;28;20568;-68
2022/03/31 10:02:47;;;;;;;;;;;;;;;;;;5059268;28;20131;-68
2022/03/31 10:05:33;;;;;;;2.83;1.20;;;;;;;;;;5056000;28;20660;-68
2022/03/31 10:08:00;;;;;;;2.05;1.00;;;;;;;;;;5054941;28;20140;-68
2022/03/31 10:10:27;;;;;;;3.87;1.43;;;;;;;;;;5055735;28;20319;-67
2022/03/31 10:12:58;;;;;;;2.45;1.10;;;;;;;;;;5046192;28;20123;-68
2022/03/31 10:15:25;;;;;;;3.65;0.95;;;;;;;;;;5058771;28;20131;-68
2022/03/31 10:17:51;;;;;;;2.72;1.10;;;;;;;;;;5062708;28;20084;-67
2022/03/31 10:20:21;;;;;;;4.80;1.42;;;;;;;;;;5057592;28;20155;-68
2022/03/31 10:25:48;;;;;;;2.60;0.82;;;;;;;;;;5024384;28;20136;-68
2022/03/31 10:28:21;;;;;;;8.63;1.55;;;;;;;;;;5059358;28;20489;-68
2022/03/31 10:30:54;;;;;;;3.10;1.17;;;;;;;;;;5062848;28;20079;-68
2022/03/31 10:33:29;;;;;;;1.23;0.88;;;;;;;;;;5060295;28;20098;-68
2022/03/31 10:36:09;;;;;;;2.25;1.08;;;;;;;;;;5055433;28;20190;-68
2022/03/31 10:38:38;;;;;;;2.33;1.10;;;;;;;;;;5057132;28;20052;-67
2022/03/31 10:41:08;;;;;;;1.73;0.80;;;;;;;;;;5050771;28;20139;-68
2022/03/31 10:43:37;;;;;;;1.25;0.80;;;;;;;;;;5038867;28;20103;-68
2022/03/31 10:46:16;;;;;;;2.38;0.63;;;;;;;;;;5036490;28;20553;-68
2022/03/31 10:48:53;;;;;;;3.13;0.95;;;;;;;;;;5036935;28;20056;-68
2022/03/31 10:51:45;;;;;;;1.98;0.90;;;;;;;;;;5038650;28;20115;-68
2022/03/31 10:54:22;;;;;;;1.77;1.00;;;;;;;;;;5036099;28;20081;-68
2022/03/31 10:57:00;;;;;;;2.92;0.90;;;;;;;;;;5038848;28;20801;-69
2022/03/31 10:59:26;;;;;;;3.17;1.00;;;;;;;;;;5041432;28;20591;-68
2022/03/31 11:01:53;;;;;;;3.08;0.77;;;;;;;;;;5041111;28;20082;-68
2022/03/31 11:04:20;;;;;;;1.60;0.90;;;;;;;;;;5042809;28;20405;-68
2022/03/31 11:06:55;;;;;;;1.58;0.90;;;;;;;;;;5039024;28;20136;-68
2022/03/31 11:09:31;;;;;;;2.78;0.90;;;;;;;;;;5039214;28;20065;-68
2022/03/31 11:11:59;;;;;;;1.10;0.60;;;;;;;;;;5040717;28;20386;-68
2022/03/31 11:14:26;;;;;;;2.13;1.10;;;;;;;;;;5040543;28;20067;-68
2022/03/31 11:16:53;;;;;;;0.98;0.77;;;;;;;;;;5041001;28;20109;-68
2022/03/31 11:19:20;;;;;;;2.58;1.00;;;;;;;;;;5039648;28;20057;-68
2022/03/31 11:21:47;;;;;;;2.75;1.10;;;;;;;;;;5040411;28;20183;-69
2022/03/31 11:24:14;;;;;;;1.58;0.85;;;;;;;;;;5042002;28;20099;-68
2022/03/31 11:26:44;;;;;;;1.60;0.85;;;;;;;;;;5040937;28;20049;-69
2022/03/31 11:29:11;;;;;;;4.40;1.10;;;;;;;;;;5039622;28;20050;-69
2022/03/31 11:31:50;;;;;;;3.03;1.13;;;;;;;;;;5040205;28;20045;-69
2022/03/31 11:34:23;;;;;;;5.40;1.27;;;;;;;;;;5038918;28;20045;-69
2022/03/31 11:36:51;;;;;;;0.88;0.80;;;;;;;;;;5022329;28;20089;-69
2022/03/31 11:39:18;;;;;;;3.92;0.90;;;;;;;;;;5039811;28;20132;-68
2022/03/31 11:41:45;;;;;;;1.58;0.90;;;;;;;;;;5053410;28;20171;-69
2022/03/31 11:44:19;;;;;;;3.33;1.23;;;;;;;;;;5057865;28;20056;-68
2022/03/31 11:46:47;;;;;;;1.48;0.80;;;;;;;;;;5057914;28;20514;-68
2022/03/31 11:49:14;;;;;;;3.83;0.80;;;;;;;;;;5060346;28;20128;-68
2022/03/31 11:51:47;;;;;;;4.57;0.98;;;;;;;;;;5061901;28;20139;-68
2022/03/31 11:54:13;;;;;;;0.98;0.80;;;;;;;;;;5058465;28;20122;-67
2022/03/31 11:56:40;;;;;;;2.60;0.65;;;;;;;;;;5057568;28;20048;-68
2022/03/31 11:59:07;;;;;;;1.25;0.63;;;;;;;;;;5058996;28;20058;-68
2022/03/31 12:01:37;;;;;;;2.20;0.73;;;;;;;;;;5056785;28;20160;-68
2022/03/31 12:04:04;;;;;;;2.55;0.75;;;;;;;;;;5057298;28;20807;-68
2022/03/31 12:06:32;;;;;;;2.95;1.08;;;;;;;;;;5058544;28;20653;-68
2022/03/31 12:08:58;;;;;;;2.13;0.85;;;;;;;;;;5057188;28;20076;-68
2022/03/31 12:11:25;;;;;;;1.17;0.60;;;;;;;;;;5057744;28;20524;-68
2022/03/31 12:13:53;;;;;;;1.67;0.80;;;;;;;;;;5057474;28;20045;-68
2022/03/31 12:16:20;;;;;;;4.32;1.40;;;;;;;;;;5058929;28;20131;-68
2022/03/31 12:18:58;;;;;;;3.55;1.05;;;;;;;;;;5058787;28;20570;-68
2022/03/31 12:21:26;;;;;;;4.32;0.93;;;;;;;;;;5062792;28;20139;-68
2022/03/31 12:24:02;;;;;;;3.30;0.85;;;;;;;;;;5060197;28;20087;-68
2022/03/31 12:26:39;;;;;;;1.27;0.70;;;;;;;;;;5057571;28;20060;-68
2022/03/31 12:29:17;;;;;;;3.03;0.75;;;;;;;;;;5062032;28;20085;-68
2022/03/31 12:31:44;;;;;;;1.85;0.60;;;;;;;;;;5062585;28;20049;-68
2022/03/31 12:34:14;;;;;;;5.32;0.70;;;;;;;;;;5060642;28;20045;-68
2022/03/31 12:36:41;;;;;;;2.13;0.40;;;;;;;;;;5055928;28;20076;-68
2022/03/31 12:39:08;;;;;;;1.58;0.70;;;;;;;;;;5057841;28;20076;-68
2022/03/31 12:41:36;;;;;;;3.13;0.52;;;;;;;;;;5043522;28;20550;-68
2022/03/31 12:44:03;;;;;;;0.88;0.70;;;;;;;;;;5039290;28;20057;-69
2022/03/31 12:46:34;;;;;;;0.90;0.60;;;;;;;;;;5038860;28;20556;-68
2022/03/31 12:49:01;;;;;;;1.70;0.77;;;;;;;;;;5040482;28;20080;-68
2022/03/31 12:51:28;;;;;;;0.77;0.60;;;;;;;;;;5038778;28;20048;-68
2022/03/31 12:53:54;;;;;;;1.15;0.82;;;;;;;;;;5038086;28;20133;-68
2022/03/31 12:56:23;;;;;;;1.20;0.90;;;;;;;;;;5037736;28;20139;-69
2022/03/31 12:58:51;;;;;;;3.63;0.82;;;;;;;;;;5039596;28;20128;-68
2022/03/31 13:01:20;;;;;;;1.80;1.13;;;;;;;;;;5037390;28;20135;-67
2022/03/31 13:03:48;;;;;;;3.40;0.65;;;;;;;;;;5038432;28;20056;-67
2022/03/31 13:06:16;;;;;;;2.50;0.80;;;;;;;;;;5038848;28;20056;-67
2022/03/31 13:08:42;;;;;;;1.08;0.73;;;;;;;;;;5039928;28;20124;-68
2022/03/31 13:11:13;;;;;;;1.90;0.80;;;;;;;;;;5038202;28;20073;-67
2022/03/31 13:13:40;;;;;;;2.08;0.70;;;;;;;;;;5040862;28;20115;-68
2022/03/31 13:16:15;;;;;;;4.57;0.70;;;;;;;;;;5035058;28;20065;-67
2022/03/31 13:18:44;;;;;;;1.75;0.70;;;;;;;;;;5037746;28;20056;-68
2022/03/31 13:21:10;;;;;;;0.98;0.50;;;;;;;;;;5037614;28;20048;-67
2022/03/31 13:23:37;;;;;;;1.63;0.50;;;;;;;;;;5037093;28;22324;-68
2022/03/31 13:26:04;;;;;;;2.25;0.55;;;;;;;;;;5036371;28;20060;-67
2022/03/31 13:28:31;;;;;;;1.92;0.68;;;;;;;;;;5037374;28;20055;-67
2022/03/31 13:30:58;;;;;;;1.30;0.77;;;;;;;;;;5036669;28;20060;-67
2022/03/31 13:33:25;;;;;;;1.50;0.77;;;;;;;;;;5037136;28;20049;-67
2022/03/31 13:35:51;;;;;;;1.05;0.68;;;;;;;;;;5038391;28;20179;-67
2022/03/31 13:38:18;;;;;;;1.45;0.60;;;;;;;;;;5038040;28;20148;-67
2022/03/31 13:40:45;;;;;;;0.50;0.50;;;;;;;;;;5044634;28;20084;-67
2022/03/31 13:43:12;;;;;;;2.38;0.60;;;;;;;;;;5057441;28;20131;-66
2022/03/31 13:45:38;;;;;;;3.13;1.02;;;;;;;;;;5054855;28;20136;-67
2022/03/31 13:48:06;;;;;;;1.80;0.90;;;;;;;;;;5056188;28;20139;-67
2022/03/31 13:50:33;;;;;;;1.48;0.50;;;;;;;;;;5057376;28;20102;-67
2022/03/31 13:55:45;;;;;;;2.97;0.50;;;;;;;;;;5058315;28;20095;-67
2022/03/31 14:01:12;;;;;;;1.70;0.82;;;;;;;;;;5058568;28;20084;-67
2022/03/31 14:03:43;;;;;;;1.35;0.38;;;;;;;;;;5057428;28;20135;-66
2022/03/31 14:06:18;;;;;;;1.08;0.50;;;;;;;;;;5052501;28;20044;-67
2022/03/31 14:08:47;;;;;;;1.30;0.50;;;;;;;;;;5051837;28;20135;-66
2022/03/31 14:11:13;;;;;;;0.77;0.43;;;;;;;;;;5056390;28;20135;-67
2022/03/31 14:13:40;;;;;;;1.17;0.40;;;;;;;;;;5055259;28;20095;-66
2022/03/31 14:16:07;;;;;;;2.30;0.43;;;;;;;;;;5053280;28;20052;-66
2022/03/31 14:18:38;;;;;;;1.52;0.57;;;;;;;;;;5055558;28;20273;-66
2022/03/31 14:21:06;;;;;;;0.35;0.35;;;;;;;;;;5055238;28;20166;-66
2022/03/31 14:23:33;;;;;;;0.50;0.50;;;;;;;;;;5058792;28;20135;-66
2022/03/31 14:26:00;;;;;;;1.00;0.50;;;;;;;;;;5060943;28;20057;-66
2022/03/31 14:28:31;;;;;;;1.27;0.63;;;;;;;;;;5057143;28;20076;-66
2022/03/31 14:30:58;;;;;;;0.60;0.40;;;;;;;;;;5054679;28;20134;-66
2022/03/31 14:33:45;;;;;;;1.10;0.50;;;;;;;;;;5036296;28;20041;-65
2022/03/31 14:36:12;;;;;;;4.32;0.70;;;;;;;;;;5055477;28;20171;-65
2022/03/31 14:38:48;;;;;;;0.98;0.50;;;;;;;;;;5057653;28;20076;-68
2022/03/31 14:41:17;;;;;;;3.25;0.70;;;;;;;;;;5058816;28;20052;-67
2022/03/31 14:43:52;;;;;;;1.85;0.55;;;;;;;;;;5060440;28;20053;-66
2022/03/31 14:46:20;;;;;;;2.03;0.82;;;;;;;;;;5057105;28;20147;-65
2022/03/31 14:48:47;;;;;;;2.83;0.77;;;;;;;;;;5052655;28;20140;-66
2022/03/31 14:51:14;;;;;;;2.92;0.47;;;;;;;;;;5056393;28;20135;-66
2022/03/31 14:53:41;;;;;;;1.45;0.80;;;;;;;;;;5057435;28;20127;-66
2022/03/31 14:56:11;;;;;;;0.80;0.80;;;;;;;;;;5059132;28;20080;-65
2022/03/31 14:58:40;;;;;;;2.30;0.70;;;;;;;;;;5053972;28;20045;-65
2022/03/31 15:01:06;;;;;;;1.75;0.63;;;;;;;;;;5056442;28;20518;-65
2022/03/31 15:03:39;;;;;;;1.58;0.68;;;;;;;;;;5054442;28;20063;-66
2022/03/31 15:06:06;;;;;;;2.03;0.70;;;;;;;;;;5057231;28;20063;-65
2022/03/31 15:08:32;;;;;;;5.80;0.95;;;;;;;;;;5057545;28;20152;-65